Time;durP1;ratioP1;P1;durP2;ratioP2;P2;SDS_P1;SDS_P2;PMS_P1;PMS_P2;Temp;Humidity;BMP_temperature;BMP_pressure;BME280_temperature;BME280_humidity;BME280_pressure;Samples;Min_cycle;Max_cycle;Signal;HPM_P1;HPM_P2
2023/07/06 00:00:47;;;;;;;3.03;2.00;;;13.10;99.90;;;;;;5023433;28;20038;-80
2023/07/06 00:03:14;;;;;;;2.53;1.90;;;13.10;99.90;;;;;;5012674;28;20547;-80
2023/07/06 00:05:47;;;;;;;5.32;2.35;;;13.10;99.90;;;;;;5001760;28;20068;-80
2023/07/06 00:08:13;;;;;;;5.63;2.10;;;13.10;99.90;;;;;;5023852;28;20057;-81
2023/07/06 00:10:41;;;;;;;2.55;1.55;;;13.00;99.90;;;;;;5028293;28;20030;-80
2023/07/06 00:13:07;;;;;;;5.82;2.00;;;13.00;99.90;;;;;;5009011;28;20087;-81
2023/07/06 00:15:34;;;;;;;3.97;1.90;;;13.00;99.90;;;;;;5002938;28;20021;-81
2023/07/06 00:18:02;;;;;;;4.65;2.47;;;12.90;99.90;;;;;;5034380;28;20044;-78
2023/07/06 00:20:38;;;;;;;4.70;2.38;;;13.00;99.90;;;;;;5026887;28;20077;-78
2023/07/06 00:23:09;;;;;;;2.33;2.03;;;13.00;99.90;;;;;;5005284;28;20029;-80
2023/07/06 00:25:36;;;;;;;6.70;2.47;;;13.00;99.90;;;;;;5003782;28;20017;-81
2023/07/06 00:28:03;;;;;;;2.60;1.90;;;13.00;99.90;;;;;;5027642;28;20030;-80
2023/07/06 00:30:53;;;;;;;2.22;1.90;;;13.00;99.90;;;;;;5014604;28;20044;-81
2023/07/06 00:33:19;;;;;;;4.20;2.22;;;13.00;99.90;;;;;;4996527;28;20045;-81
2023/07/06 00:35:45;;;;;;;4.55;2.03;;;13.00;99.90;;;;;;5026438;28;20079;-81
2023/07/06 00:38:14;;;;;;;4.72;2.17;;;13.00;99.90;;;;;;5026510;28;20025;-80
2023/07/06 00:40:42;;;;;;;2.13;1.92;;;13.00;99.90;;;;;;5006901;28;20516;-79
2023/07/06 00:43:15;;;;;;;4.15;2.60;;;12.90;99.90;;;;;;5019949;28;20683;-80
2023/07/06 00:45:45;;;;;;;3.33;2.35;;;13.00;99.90;;;;;;5006544;28;20109;-79
2023/07/06 00:48:36;;;;;;;2.40;2.00;;;12.90;99.90;;;;;;5013896;28;20032;-80
2023/07/06 00:51:07;;;;;;;2.70;2.33;;;12.90;99.90;;;;;;5010713;28;20112;-80
2023/07/06 00:53:38;;;;;;;2.75;2.08;;;12.80;99.90;;;;;;5013387;28;20034;-80
2023/07/06 00:56:06;;;;;;;4.85;2.15;;;12.90;99.90;;;;;;5008844;28;20025;-80
2023/07/06 00:58:38;;;;;;;6.95;2.92;;;12.90;99.90;;;;;;5011900;28;20444;-79
2023/07/06 01:01:07;;;;;;;5.18;2.40;;;12.90;99.90;;;;;;5013330;28;20041;-79
2023/07/06 01:03:43;;;;;;;4.00;2.20;;;12.80;99.90;;;;;;5006554;28;20025;-80
2023/07/06 01:06:14;;;;;;;4.55;2.22;;;12.80;99.90;;;;;;5008688;28;20056;-79
2023/07/06 01:08:39;;;;;;;3.63;2.55;;;12.80;99.90;;;;;;5027881;28;20022;-80
2023/07/06 01:11:08;;;;;;;5.82;2.60;;;12.80;99.90;;;;;;5003992;28;20555;-80
2023/07/06 01:13:33;;;;;;;4.75;2.28;;;12.80;99.90;;;;;;5011854;28;20074;-78
2023/07/06 01:16:25;;;;;;;3.78;2.40;;;12.70;99.90;;;;;;5004944;28;20037;-78
2023/07/06 01:19:02;;;;;;;6.50;2.42;;;12.70;99.90;;;;;;4994381;28;20030;-79
2023/07/06 01:21:56;;;;;;;4.47;2.60;;;12.70;99.90;;;;;;5021966;28;20056;-80
2023/07/06 01:24:57;;;;;;;3.60;2.72;;;12.70;99.90;;;;;;5020424;28;20030;-79
2023/07/06 01:28:02;;;;;;;4.60;2.00;;;12.60;99.90;;;;;;5020674;28;20370;-79
2023/07/06 01:30:46;;;;;;;3.40;2.35;;;12.60;99.90;;;;;;4995577;28;20029;-79
2023/07/06 01:33:18;;;;;;;3.22;1.98;;;12.60;99.90;;;;;;5005853;28;20025;-81
2023/07/06 01:36:13;;;;;;;5.03;2.72;;;12.60;99.90;;;;;;4997627;28;20041;-79
2023/07/06 01:38:38;;;;;;;5.25;2.10;;;12.50;99.90;;;;;;5003713;28;20041;-80
2023/07/06 01:41:06;;;;;;;3.50;2.40;;;12.50;99.90;;;;;;5015559;28;20029;-80
2023/07/06 01:43:32;;;;;;;6.00;2.60;;;12.50;99.90;;;;;;5007780;28;20018;-79
2023/07/06 01:45:58;;;;;;;5.28;2.97;;;12.50;99.90;;;;;;4996696;28;20044;-79
2023/07/06 01:48:24;;;;;;;6.60;2.45;;;12.40;99.90;;;;;;4990988;28;20019;-79
2023/07/06 01:51:18;;;;;;;4.63;2.13;;;12.40;99.90;;;;;;5019618;28;20104;-79
2023/07/06 01:54:22;;;;;;;3.88;2.22;;;12.40;99.90;;;;;;5010748;28;20820;-79
2023/07/06 01:56:57;;;;;;;5.30;2.50;;;12.40;99.90;;;;;;4945710;28;20106;-80
2023/07/06 01:59:27;;;;;;;4.22;2.20;;;12.30;99.90;;;;;;4991961;28;20044;-78
2023/07/06 02:02:01;;;;;;;3.10;2.80;;;12.30;99.90;;;;;;5003489;28;20034;-80
2023/07/06 02:04:29;;;;;;;4.97;2.15;;;12.30;99.90;;;;;;5002814;28;20059;-80
2023/07/06 02:06:56;;;;;;;3.78;3.15;;;12.30;99.90;;;;;;5010845;28;20040;-80
2023/07/06 02:09:22;;;;;;;5.68;2.78;;;12.30;99.90;;;;;;5008318;28;20032;-78
2023/07/06 02:11:51;;;;;;;4.50;2.75;;;12.30;99.90;;;;;;5029425;28;20025;-80
2023/07/06 02:14:18;;;;;;;3.55;3.08;;;12.30;99.90;;;;;;5003238;28;20088;-79
2023/07/06 02:16:43;;;;;;;4.03;2.47;;;12.20;99.90;;;;;;5006597;28;20025;-80
2023/07/06 02:19:09;;;;;;;7.38;3.75;;;12.20;99.90;;;;;;4997861;28;20028;-78
2023/07/06 02:21:34;;;;;;;7.60;2.78;;;12.20;99.90;;;;;;5022789;28;20385;-80
2023/07/06 02:24:00;;;;;;;4.43;2.60;;;12.10;99.90;;;;;;5008220;28;20025;-80
2023/07/06 02:26:25;;;;;;;4.65;2.95;;;12.10;99.90;;;;;;4998720;28;20037;-78
2023/07/06 02:28:52;;;;;;;7.63;3.33;;;12.10;99.90;;;;;;5001750;28;20022;-80
2023/07/06 02:31:18;;;;;;;6.45;2.83;;;12.10;99.90;;;;;;5024587;28;20084;-79
2023/07/06 02:33:44;;;;;;;7.32;2.97;;;12.10;99.90;;;;;;5023347;28;20025;-78
2023/07/06 02:36:11;;;;;;;3.67;2.50;;;12.10;99.90;;;;;;5002864;28;20034;-80
2023/07/06 02:38:37;;;;;;;7.78;3.05;;;12.00;99.90;;;;;;5001064;28;20021;-80
2023/07/06 02:41:04;;;;;;;4.85;2.80;;;12.00;99.90;;;;;;5027415;28;20077;-78
2023/07/06 02:43:30;;;;;;;4.43;3.30;;;12.00;99.90;;;;;;5001863;28;20030;-79
2023/07/06 02:45:57;;;;;;;5.32;3.35;;;12.00;99.90;;;;;;4992552;28;20057;-80
2023/07/06 02:48:24;;;;;;;3.72;2.67;;;12.00;99.90;;;;;;5013924;28;20028;-79
2023/07/06 02:50:51;;;;;;;4.72;3.22;;;11.90;99.90;;;;;;5003639;28;20045;-79
2023/07/06 02:53:17;;;;;;;3.90;2.75;;;11.90;99.90;;;;;;5012610;28;20140;-80
2023/07/06 02:55:47;;;;;;;3.78;2.58;;;11.90;99.90;;;;;;5020355;28;20026;-79
2023/07/06 02:58:12;;;;;;;6.75;3.20;;;11.80;99.90;;;;;;5017802;28;20022;-79
2023/07/06 03:00:38;;;;;;;4.80;2.78;;;11.80;99.90;;;;;;5019356;28;20584;-80
2023/07/06 03:03:03;;;;;;;4.03;3.25;;;11.80;99.90;;;;;;5008087;28;20119;-82
2023/07/06 03:05:30;;;;;;;5.85;3.40;;;11.70;99.90;;;;;;5006442;28;20488;-80
2023/07/06 03:07:56;;;;;;;5.70;3.17;;;11.80;99.90;;;;;;5007228;28;20021;-79
2023/07/06 03:10:24;;;;;;;5.65;3.20;;;11.80;99.90;;;;;;5006696;28;20062;-79
2023/07/06 03:12:51;;;;;;;4.70;3.65;;;11.70;99.90;;;;;;5005683;28;20022;-79
2023/07/06 03:15:16;;;;;;;4.95;2.95;;;11.70;99.90;;;;;;5015878;28;20029;-80
2023/07/06 03:17:48;;;;;;;7.75;3.50;;;11.80;99.90;;;;;;5013320;28;20040;-80
2023/07/06 03:20:14;;;;;;;7.25;3.75;;;11.70;99.90;;;;;;5005759;28;20031;-80
2023/07/06 03:22:40;;;;;;;6.30;3.42;;;11.70;99.90;;;;;;5017961;28;20167;-79
2023/07/06 03:25:09;;;;;;;5.57;3.42;;;11.70;99.90;;;;;;5003173;28;20026;-78
2023/07/06 03:27:36;;;;;;;4.07;2.80;;;11.70;99.90;;;;;;5010353;28;20026;-79
2023/07/06 03:30:04;;;;;;;4.32;3.30;;;11.70;99.90;;;;;;5006400;28;20508;-79
2023/07/06 03:32:30;;;;;;;5.95;3.30;;;11.70;99.90;;;;;;5011008;28;20034;-80
2023/07/06 03:34:56;;;;;;;5.13;3.22;;;11.70;99.90;;;;;;5012218;28;20492;-79
2023/07/06 03:37:21;;;;;;;7.00;3.55;;;11.70;99.90;;;;;;5017217;28;20040;-80
2023/07/06 03:39:47;;;;;;;4.53;3.20;;;11.70;99.90;;;;;;5033999;28;20067;-79
2023/07/06 03:42:13;;;;;;;4.88;3.20;;;11.70;99.90;;;;;;5002241;28;20073;-79
2023/07/06 03:44:39;;;;;;;3.58;3.20;;;11.70;99.90;;;;;;5005715;28;20033;-79
2023/07/06 03:47:06;;;;;;;5.53;3.47;;;11.70;99.90;;;;;;5009220;28;20048;-79
2023/07/06 03:49:34;;;;;;;5.05;3.60;;;11.70;99.90;;;;;;5005186;28;20014;-80
2023/07/06 03:52:02;;;;;;;4.30;3.40;;;11.70;99.90;;;;;;5017755;28;20021;-79
2023/07/06 03:54:28;;;;;;;3.90;3.25;;;11.70;99.90;;;;;;5008748;28;20496;-80
2023/07/06 03:56:53;;;;;;;4.10;3.33;;;11.60;99.90;;;;;;5026548;28;20117;-80
2023/07/06 03:59:19;;;;;;;8.93;3.53;;;11.70;99.90;;;;;;5008487;28;20022;-80
2023/07/06 04:01:44;;;;;;;6.03;3.63;;;11.70;99.90;;;;;;4998138;28;20385;-79
2023/07/06 04:04:10;;;;;;;7.65;3.83;;;11.70;99.90;;;;;;5011861;28;20021;-80
2023/07/06 04:06:40;;;;;;;6.55;3.78;;;11.70;99.90;;;;;;5007696;28;20028;-80
2023/07/06 04:09:08;;;;;;;9.05;4.93;;;11.70;99.90;;;;;;5014650;28;20076;-79
2023/07/06 04:11:35;;;;;;;7.43;3.65;;;11.70;99.90;;;;;;5011940;28;20026;-80
2023/07/06 04:14:00;;;;;;;3.95;3.55;;;11.70;99.90;;;;;;5016096;28;20034;-79
2023/07/06 04:16:26;;;;;;;6.47;4.78;;;11.80;99.90;;;;;;4993485;28;20029;-79
2023/07/06 04:18:52;;;;;;;5.55;4.20;;;11.80;99.90;;;;;;5002938;28;20036;-80
2023/07/06 04:21:18;;;;;;;5.15;4.10;;;11.80;99.90;;;;;;5010798;28;20037;-80
2023/07/06 04:23:47;;;;;;;5.38;4.75;;;11.90;99.90;;;;;;5027756;28;20103;-79
2023/07/06 04:26:17;;;;;;;6.32;4.30;;;11.90;99.90;;;;;;5039254;28;20539;-78
2023/07/06 04:28:43;;;;;;;5.57;4.22;;;11.90;99.90;;;;;;5030122;28;20385;-81
2023/07/06 04:31:10;;;;;;;10.63;5.28;;;12.00;99.90;;;;;;5032008;28;20037;-80
2023/07/06 04:33:36;;;;;;;7.68;4.88;;;12.00;99.90;;;;;;5013775;28;20033;-79
2023/07/06 04:36:02;;;;;;;8.75;4.82;;;12.00;99.90;;;;;;5031978;28;20485;-79
2023/07/06 04:38:29;;;;;;;9.15;4.88;;;12.00;99.90;;;;;;5014431;28;20044;-79
2023/07/06 04:40:56;;;;;;;10.07;5.72;;;12.00;99.90;;;;;;5014059;28;20036;-81
2023/07/06 04:43:22;;;;;;;10.80;5.07;;;12.00;99.90;;;;;;5012673;28;20026;-81
2023/07/06 04:45:48;;;;;;;6.97;5.00;;;12.00;99.90;;;;;;5020187;28;20021;-80
2023/07/06 04:48:16;;;;;;;7.30;5.22;;;12.10;99.90;;;;;;5012718;28;20029;-80
2023/07/06 04:50:43;;;;;;;11.00;5.35;;;12.10;99.90;;;;;;5004588;28;20501;-81
2023/07/06 04:53:09;;;;;;;6.65;5.18;;;12.10;99.90;;;;;;5032957;28;20032;-80
2023/07/06 04:55:35;;;;;;;6.90;5.15;;;12.20;99.90;;;;;;5003042;28;20111;-81
2023/07/06 04:58:05;;;;;;;10.15;5.72;;;12.20;99.90;;;;;;5022259;28;20033;-78
2023/07/06 05:00:33;;;;;;;9.80;5.75;;;12.30;99.90;;;;;;5006787;28;20045;-80
2023/07/06 05:03:02;;;;;;;12.15;6.03;;;12.30;99.90;;;;;;5025939;28;20026;-80
2023/07/06 05:05:33;;;;;;;9.30;5.20;;;12.40;99.90;;;;;;5010058;28;20066;-78
2023/07/06 05:07:58;;;;;;;6.78;5.70;;;12.40;99.90;;;;;;5007111;28;20022;-79
2023/07/06 05:10:26;;;;;;;6.68;4.63;;;12.50;99.90;;;;;;5015403;28;20028;-80
2023/07/06 05:12:52;;;;;;;7.70;5.82;;;12.60;99.90;;;;;;5030032;28;20025;-80
2023/07/06 05:15:18;;;;;;;8.20;5.70;;;12.60;99.90;;;;;;5008453;28;20057;-79
2023/07/06 05:17:43;;;;;;;7.30;5.38;;;12.70;99.90;;;;;;5009265;28;20381;-80
2023/07/06 05:20:14;;;;;;;8.55;5.18;;;12.70;99.90;;;;;;5008044;28;20463;-79
2023/07/06 05:22:43;;;;;;;5.90;5.30;;;12.80;99.90;;;;;;5033341;28;20025;-79
2023/07/06 05:25:10;;;;;;;6.95;5.22;;;12.80;99.90;;;;;;5010320;28;20481;-80
2023/07/06 05:27:37;;;;;;;7.22;5.63;;;12.90;99.90;;;;;;5005134;28;20037;-80
2023/07/06 05:30:03;;;;;;;8.05;5.70;;;12.90;99.90;;;;;;5002315;28;20021;-79
2023/07/06 05:32:29;;;;;;;7.70;5.22;;;13.10;99.90;;;;;;5024929;28;20026;-80
2023/07/06 05:34:54;;;;;;;8.43;5.65;;;13.10;99.90;;;;;;5026066;28;20022;-80
2023/07/06 05:37:20;;;;;;;8.82;4.90;;;13.20;99.90;;;;;;5007103;28;20121;-81
2023/07/06 05:39:46;;;;;;;9.25;5.13;;;13.20;99.90;;;;;;5033323;28;20092;-80
2023/07/06 05:42:13;;;;;;;6.18;4.70;;;13.30;99.90;;;;;;5009952;28;20068;-79
2023/07/06 05:44:39;;;;;;;9.65;5.78;;;13.40;99.90;;;;;;5000202;28;20032;-79
2023/07/06 05:47:07;;;;;;;7.15;5.03;;;13.50;99.90;;;;;;5012935;28;20397;-80
2023/07/06 05:49:33;;;;;;;7.75;4.85;;;13.60;99.90;;;;;;5004871;28;20086;-80
2023/07/06 05:51:58;;;;;;;5.63;4.75;;;13.70;99.90;;;;;;5026998;28;20057;-80
2023/07/06 05:54:24;;;;;;;8.50;5.13;;;13.80;99.90;;;;;;5024686;28;20400;-78
2023/07/06 05:56:49;;;;;;;5.88;4.60;;;13.90;99.90;;;;;;5015958;28;20109;-81
2023/07/06 05:59:15;;;;;;;7.65;4.70;;;14.00;99.90;;;;;;5009574;28;20437;-80
2023/07/06 06:01:41;;;;;;;9.63;4.55;;;14.20;99.90;;;;;;5003350;28;20117;-79
2023/07/06 06:04:07;;;;;;;5.75;4.28;;;14.30;99.90;;;;;;5007226;28;20041;-79
2023/07/06 06:06:48;;;;;;;6.07;3.97;;;14.40;99.90;;;;;;5004114;28;20580;-80
2023/07/06 06:09:15;;;;;;;5.95;4.60;;;14.60;99.90;;;;;;5009121;28;20383;-80
2023/07/06 06:11:40;;;;;;;9.35;4.10;;;14.70;99.90;;;;;;5025700;28;20105;-81
2023/07/06 06:14:06;;;;;;;6.20;5.00;;;14.80;99.90;;;;;;5005494;28;20064;-79
2023/07/06 06:16:32;;;;;;;7.38;4.25;;;14.90;99.90;;;;;;5000394;28;20137;-81
2023/07/06 06:19:00;;;;;;;6.30;3.85;;;15.00;99.90;;;;;;4999315;28;20050;-81
2023/07/06 06:21:27;;;;;;;5.05;3.92;;;15.20;99.90;;;;;;5012508;28;20029;-81
2023/07/06 06:23:53;;;;;;;5.97;3.85;;;15.30;99.90;;;;;;5012197;28;20116;-81
2023/07/06 06:26:19;;;;;;;5.60;4.20;;;15.40;99.90;;;;;;5020297;28;20088;-80
2023/07/06 06:28:44;;;;;;;4.47;4.03;;;15.60;99.90;;;;;;5001052;28;20017;-81
2023/07/06 06:31:12;;;;;;;4.13;3.70;;;15.70;99.90;;;;;;5010454;28;20034;-81
2023/07/06 06:33:38;;;;;;;6.18;3.95;;;15.90;99.90;;;;;;5007452;28;20030;-80
2023/07/06 06:36:04;;;;;;;4.88;3.78;;;16.00;99.90;;;;;;5016058;28;20026;-81
2023/07/06 06:38:34;;;;;;;7.53;3.60;;;16.10;99.90;;;;;;5015497;28;20457;-81
2023/07/06 06:41:02;;;;;;;5.50;2.97;;;16.20;99.90;;;;;;5002054;28;20032;-79
2023/07/06 06:43:28;;;;;;;4.78;2.63;;;16.40;99.90;;;;;;5008716;28;20021;-80
2023/07/06 06:45:53;;;;;;;5.57;2.53;;;16.50;99.90;;;;;;5021702;28;20021;-81
2023/07/06 06:48:20;;;;;;;3.30;2.50;;;16.70;99.90;;;;;;5007500;28;20076;-81
2023/07/06 06:50:45;;;;;;;5.32;3.17;;;16.80;99.90;;;;;;5002815;28;20030;-79
2023/07/06 06:53:11;;;;;;;6.15;2.70;;;16.90;99.90;;;;;;5003762;28;20036;-81
2023/07/06 06:55:37;;;;;;;4.80;3.10;;;17.00;99.90;;;;;;5009036;28;20468;-82
2023/07/06 06:58:03;;;;;;;5.95;3.08;;;17.10;99.90;;;;;;5013309;28;20132;-82
2023/07/06 07:00:29;;;;;;;3.55;2.70;;;17.10;99.90;;;;;;5019709;28;20038;-82
2023/07/06 07:02:54;;;;;;;3.95;2.53;;;17.20;99.90;;;;;;5003964;28;20053;-81
2023/07/06 07:05:20;;;;;;;4.30;2.47;;;17.30;99.90;;;;;;5001686;28;20033;-83
2023/07/06 07:07:45;;;;;;;4.38;2.78;;;17.40;99.90;;;;;;5005107;28;20044;-81
2023/07/06 07:10:11;;;;;;;3.88;2.53;;;17.50;99.90;;;;;;5006076;28;20022;-80
2023/07/06 07:12:42;;;;;;;5.32;2.30;;;17.60;99.90;;;;;;5008284;28;20029;-81
2023/07/06 07:15:09;;;;;;;3.15;2.25;;;17.70;99.90;;;;;;5005345;28;20631;-81
2023/07/06 07:17:36;;;;;;;4.13;2.53;;;17.80;99.90;;;;;;5020753;28;20029;-83
2023/07/06 07:20:02;;;;;;;3.78;2.55;;;17.90;99.90;;;;;;5003225;28;20109;-81
2023/07/06 07:22:28;;;;;;;3.88;2.25;;;17.90;99.90;;;;;;5013030;28;20586;-81
2023/07/06 07:24:54;;;;;;;4.32;2.15;;;18.00;99.90;;;;;;5004295;28;20022;-82
2023/07/06 07:27:19;;;;;;;3.88;2.35;;;18.10;99.90;;;;;;5017919;28;20026;-82
2023/07/06 07:29:47;;;;;;;6.32;2.40;;;18.30;99.90;;;;;;5006748;28;20034;-80
2023/07/06 07:32:14;;;;;;;4.43;2.25;;;18.40;99.90;;;;;;4998521;28;20030;-83
2023/07/06 07:34:40;;;;;;;4.72;2.55;;;18.50;99.90;;;;;;5024037;28;20033;-81
2023/07/06 07:37:10;;;;;;;4.10;2.05;;;18.50;99.90;;;;;;5001260;28;20014;-80
2023/07/06 07:39:36;;;;;;;2.83;1.98;;;18.50;99.90;;;;;;4996128;28;20033;-79
2023/07/06 07:42:02;;;;;;;4.97;2.05;;;18.60;99.90;;;;;;5006459;28;20029;-80
2023/07/06 07:44:28;;;;;;;3.78;2.13;;;18.70;99.90;;;;;;5001215;28;20022;-80
2023/07/06 07:46:53;;;;;;;3.08;1.95;;;18.80;99.90;;;;;;5007733;28;20113;-80
2023/07/06 07:49:19;;;;;;;5.03;2.22;;;18.80;99.90;;;;;;5001419;28;20127;-80
2023/07/06 07:51:46;;;;;;;4.20;1.88;;;18.90;99.90;;;;;;5009157;28;20738;-80
2023/07/06 07:54:11;;;;;;;2.30;1.60;;;18.90;99.90;;;;;;5016980;28;20089;-81
2023/07/06 07:56:37;;;;;;;3.92;1.70;;;19.00;99.90;;;;;;5008368;28;20600;-80
2023/07/06 07:59:03;;;;;;;3.45;1.67;;;19.20;99.90;;;;;;5025278;28;20035;-80
2023/07/06 08:01:28;;;;;;;3.70;1.65;;;19.30;99.90;;;;;;5002065;28;20043;-81
2023/07/06 08:03:54;;;;;;;2.72;1.45;;;19.50;99.90;;;;;;5013385;28;20026;-80
2023/07/06 08:06:21;;;;;;;4.10;1.77;;;19.60;99.90;;;;;;5001749;28;20089;-84
2023/07/06 08:08:47;;;;;;;1.35;1.25;;;19.70;99.90;;;;;;5029703;28;20014;-80
2023/07/06 08:11:16;;;;;;;3.13;1.80;;;19.80;99.90;;;;;;5025830;28;20022;-80
2023/07/06 08:13:45;;;;;;;2.20;1.70;;;19.90;99.90;;;;;;5014482;28;20022;-80
2023/07/06 08:16:12;;;;;;;1.40;1.23;;;20.10;99.90;;;;;;5016078;28;20022;-79
2023/07/06 08:18:41;;;;;;;2.50;1.23;;;20.20;99.90;;;;;;5018107;28;20105;-80
2023/07/06 08:21:06;;;;;;;4.40;1.52;;;20.30;99.90;;;;;;5010677;28;20025;-80
2023/07/06 08:23:32;;;;;;;5.22;1.63;;;20.30;99.90;;;;;;5013784;28;20088;-82
2023/07/06 08:25:58;;;;;;;3.75;1.13;;;20.10;99.90;;;;;;5010898;28;20022;-78
2023/07/06 08:28:31;;;;;;;4.03;1.27;;;20.00;99.90;;;;;;5024170;28;20018;-80
2023/07/06 08:31:01;;;;;;;2.08;1.30;;;20.00;99.90;;;;;;5027640;28;20033;-79
2023/07/06 08:33:27;;;;;;;2.50;1.25;;;20.10;99.90;;;;;;5008929;28;20037;-80
2023/07/06 08:35:53;;;;;;;3.15;1.15;;;20.40;99.90;;;;;;5011900;28;20969;-80
2023/07/06 08:38:19;;;;;;;3.58;1.20;;;20.30;99.90;;;;;;5009560;28;20116;-79
2023/07/06 08:40:52;;;;;;;2.05;1.27;;;20.50;99.90;;;;;;5027885;28;20375;-80
2023/07/06 08:43:21;;;;;;;2.30;1.20;;;20.50;99.90;;;;;;5028417;28;20025;-79
2023/07/06 08:45:52;;;;;;;2.45;1.33;;;20.50;99.90;;;;;;5003762;28;20117;-80
2023/07/06 08:48:22;;;;;;;0.98;0.93;;;20.30;99.90;;;;;;5010500;28;20026;-80
2023/07/06 08:50:56;;;;;;;1.70;1.23;;;20.20;99.90;;;;;;5004374;28;20025;-81
2023/07/06 08:53:27;;;;;;;3.13;1.25;;;20.30;99.90;;;;;;5025486;28;20026;-80
2023/07/06 08:55:54;;;;;;;1.67;1.27;;;20.50;99.90;;;;;;5005228;28;20052;-79
2023/07/06 08:58:32;;;;;;;1.48;1.05;;;20.70;99.90;;;;;;5007845;28;20121;-78
2023/07/06 09:01:17;;;;;;;3.50;1.55;;;20.60;99.90;;;;;;5014821;28;20543;-80
2023/07/06 09:03:48;;;;;;;1.30;1.20;;;20.60;99.90;;;;;;5030490;28;20025;-80
2023/07/06 09:06:18;;;;;;;1.85;1.20;;;20.70;99.90;;;;;;5004700;28;20033;-78
2023/07/06 09:08:50;;;;;;;3.17;1.17;;;20.50;99.90;;;;;;5022411;28;20021;-78
2023/07/06 09:11:17;;;;;;;1.30;1.20;;;20.40;99.90;;;;;;5005669;28;20022;-78
2023/07/06 09:13:46;;;;;;;3.15;1.40;;;20.40;99.70;;;;;;5006953;28;20037;-78
2023/07/06 09:16:12;;;;;;;2.53;1.35;;;20.30;99.90;;;;;;5008005;28;20448;-80
2023/07/06 09:18:42;;;;;;;1.67;1.20;;;20.30;99.90;;;;;;5014966;28;20450;-79
2023/07/06 09:21:08;;;;;;;2.65;1.20;;;20.30;99.90;;;;;;5006949;28;20463;-78
2023/07/06 09:23:34;;;;;;;3.53;1.30;;;20.50;99.90;;;;;;5028314;28;20014;-78
2023/07/06 09:26:06;;;;;;;1.75;1.38;;;20.60;99.90;;;;;;5025607;28;20049;-80
2023/07/06 09:28:33;;;;;;;2.47;0.90;;;20.70;99.90;;;;;;4998161;28;20132;-78
2023/07/06 09:31:16;;;;;;;4.18;1.48;;;20.60;99.90;;;;;;5026721;28;20536;-78
2023/07/06 09:33:50;;;;;;;3.10;1.60;;;20.40;99.90;;;;;;5004789;28;20026;-79
2023/07/06 09:36:19;;;;;;;1.40;1.23;;;20.30;99.90;;;;;;5006475;28;20480;-78
2023/07/06 09:38:45;;;;;;;2.78;1.30;;;20.30;99.90;;;;;;5007002;28;20029;-79
2023/07/06 09:41:29;;;;;;;1.60;1.10;;;20.40;99.90;;;;;;5011871;28;20035;-78
2023/07/06 09:43:59;;;;;;;1.52;0.95;;;20.40;99.90;;;;;;5004306;28;20030;-79
2023/07/06 09:46:30;;;;;;;2.63;1.10;;;20.30;99.90;;;;;;5004635;28;20021;-78
2023/07/06 09:48:56;;;;;;;4.05;1.27;;;20.20;99.90;;;;;;5021032;28;20051;-78
2023/07/06 09:51:36;;;;;;;1.10;0.85;;;20.30;99.90;;;;;;5018958;28;20040;-81
2023/07/06 09:54:15;;;;;;;1.15;0.98;;;20.10;99.00;;;;;;5019922;28;20022;-79
2023/07/06 09:56:42;;;;;;;3.70;2.05;;;20.10;99.90;;;;;;5011628;28;20116;-79
2023/07/06 09:59:11;;;;;;;1.85;1.48;;;20.10;99.90;;;;;;5023950;28;20018;-79
2023/07/06 10:01:59;;;;;;;1.65;1.27;;;20.00;99.90;;;;;;5017600;28;20037;-79
2023/07/06 10:05:02;;;;;;;2.45;0.90;;;20.00;99.90;;;;;;5006560;28;20022;-78
2023/07/06 10:08:05;;;;;;;1.80;1.00;;;19.80;99.90;;;;;;4995572;28;20034;-79
2023/07/06 10:10:50;;;;;;;1.20;1.10;;;19.80;99.90;;;;;;4981013;28;20066;-79
2023/07/06 10:13:34;;;;;;;3.28;1.17;;;19.70;99.90;;;;;;5021648;28;20582;-79
2023/07/06 10:16:11;;;;;;;3.75;1.10;;;19.40;99.50;;;;;;5018810;28;20030;-80
2023/07/06 10:18:50;;;;;;;1.48;1.00;;;19.30;99.90;;;;;;5004583;28;20033;-80
2023/07/06 10:21:29;;;;;;;2.22;1.13;;;19.30;99.90;;;;;;5005668;28;20081;-79
2023/07/06 10:24:08;;;;;;;3.58;1.00;;;19.30;99.90;;;;;;4994908;28;20025;-79
2023/07/06 10:26:35;;;;;;;2.22;1.08;;;19.20;99.90;;;;;;5008151;28;20421;-80
2023/07/06 10:29:11;;;;;;;1.92;1.20;;;19.20;99.90;;;;;;5005737;28;20025;-79
2023/07/06 10:31:47;;;;;;;1.92;1.20;;;19.20;99.90;;;;;;5008779;28;20116;-79
2023/07/06 10:34:31;;;;;;;2.63;1.08;;;19.30;99.90;;;;;;5026150;28;20128;-79
2023/07/06 10:36:58;;;;;;;1.58;1.05;;;19.30;99.90;;;;;;5005551;28;20022;-80
2023/07/06 10:39:24;;;;;;;2.80;1.20;;;19.40;99.90;;;;;;5029519;28;20441;-80
2023/07/06 10:42:00;;;;;;;1.13;0.90;;;19.40;99.90;;;;;;5015901;28;20060;-79
2023/07/06 10:44:43;;;;;;;2.55;0.93;;;19.20;99.90;;;;;;5002080;28;20030;-79
2023/07/06 10:47:32;;;;;;;1.15;1.05;;;19.20;99.90;;;;;;5009832;28;20054;-79
2023/07/06 10:50:19;;;;;;;1.83;1.10;;;19.00;99.90;;;;;;5015290;28;20144;-79
2023/07/06 10:52:57;;;;;;;1.38;1.25;;;19.10;99.90;;;;;;5010524;28;20060;-81
2023/07/06 10:55:23;;;;;;;3.65;1.55;;;19.10;99.90;;;;;;5008141;28;20025;-79
2023/07/06 10:58:05;;;;;;;3.42;1.42;;;19.20;99.90;;;;;;4996080;28;20028;-81
2023/07/06 11:00:35;;;;;;;2.40;1.05;;;19.30;99.90;;;;;;5026249;28;20041;-81
2023/07/06 11:03:02;;;;;;;1.85;1.00;;;19.30;99.90;;;;;;5005518;28;20033;-79
2023/07/06 11:05:33;;;;;;;2.13;1.30;;;19.40;99.90;;;;;;5009300;28;20725;-79
2023/07/06 11:08:01;;;;;;;1.85;1.25;;;19.60;99.90;;;;;;5022239;28;20036;-80
2023/07/06 11:10:44;;;;;;;2.13;1.42;;;19.70;99.90;;;;;;5010129;28;20060;-79
2023/07/06 11:13:12;;;;;;;1.42;1.33;;;19.80;99.90;;;;;;5002455;28;20083;-81
2023/07/06 11:15:52;;;;;;;1.33;1.23;;;19.90;99.90;;;;;;5029811;28;20029;-79
2023/07/06 11:18:39;;;;;;;1.13;1.02;;;19.90;99.90;;;;;;4997117;28;20645;-81
2023/07/06 11:21:17;;;;;;;2.78;0.93;;;19.90;99.90;;;;;;4996486;28;20428;-80
2023/07/06 11:24:09;;;;;;;4.03;1.30;;;20.00;99.90;;;;;;5012335;28;20075;-79
2023/07/06 11:27:01;;;;;;;2.22;1.58;;;20.00;99.90;;;;;;5000866;28;20122;-80
2023/07/06 11:29:29;;;;;;;2.72;1.10;;;20.20;99.90;;;;;;5015765;28;20449;-80
2023/07/06 11:32:10;;;;;;;3.20;1.38;;;20.30;99.90;;;;;;5018800;28;20113;-79
2023/07/06 11:34:55;;;;;;;1.92;0.98;;;20.30;99.90;;;;;;5021566;28;20022;-80
2023/07/06 11:37:40;;;;;;;1.10;0.82;;;20.30;99.90;;;;;;5000913;28;20032;-81
2023/07/06 11:40:29;;;;;;;1.88;1.45;;;20.50;99.90;;;;;;5007369;28;20023;-80
2023/07/06 11:43:23;;;;;;;2.55;1.40;;;20.60;99.90;;;;;;5004632;28;20074;-81
2023/07/06 11:45:58;;;;;;;1.45;1.15;;;20.90;99.90;;;;;;5023359;28;20104;-80
2023/07/06 11:48:36;;;;;;;1.00;0.80;;;21.00;99.10;;;;;;5011692;28;20025;-81
2023/07/06 11:51:04;;;;;;;3.13;1.30;;;21.20;99.90;;;;;;5019299;28;20084;-81
2023/07/06 11:53:44;;;;;;;3.00;1.50;;;21.10;99.00;;;;;;5019593;28;20053;-80
2023/07/06 11:59:26;;;;;;;2.67;1.30;;;21.20;98.90;;;;;;5021549;28;20028;-82
2023/07/06 12:02:00;;;;;;;4.30;1.10;;;21.30;99.00;;;;;;5007141;28;20132;-81
2023/07/06 12:04:29;;;;;;;2.40;1.40;;;21.30;97.30;;;;;;5016905;28;20022;-81
2023/07/06 12:06:57;;;;;;;1.98;1.02;;;21.30;98.40;;;;;;5008492;28;20052;-82
2023/07/06 12:09:24;;;;;;;1.52;1.02;;;21.30;98.00;;;;;;5002537;28;20028;-81
2023/07/06 12:12:06;;;;;;;2.42;1.23;;;21.20;97.80;;;;;;5015651;28;20022;-79
2023/07/06 12:14:34;;;;;;;2.13;1.00;;;21.20;97.90;;;;;;4995816;28;20090;-81
2023/07/06 12:17:02;;;;;;;2.65;1.20;;;21.00;98.20;;;;;;5015747;28;20072;-83
2023/07/06 12:19:30;;;;;;;2.28;1.08;;;20.90;99.60;;;;;;5010419;28;20006;-82
2023/07/06 12:21:57;;;;;;;3.67;1.35;;;20.70;98.20;;;;;;5002251;28;20030;-82
2023/07/06 12:24:25;;;;;;;1.70;1.60;;;20.60;98.90;;;;;;5015458;28;20672;-80
2023/07/06 12:27:01;;;;;;;2.88;1.33;;;20.50;98.90;;;;;;5013384;28;20049;-81
2023/07/06 12:29:31;;;;;;;3.70;1.42;;;20.30;99.10;;;;;;5009391;28;20486;-82
2023/07/06 12:32:28;;;;;;;1.27;1.17;;;20.30;98.90;;;;;;5005516;28;20061;-80
2023/07/06 12:34:54;;;;;;;1.33;1.17;;;20.20;99.70;;;;;;5017071;28;20041;-80
2023/07/06 12:37:22;;;;;;;1.88;1.40;;;20.20;99.30;;;;;;5003319;28;20025;-79
2023/07/06 12:39:49;;;;;;;1.83;1.30;;;20.20;99.70;;;;;;5012809;28;20021;-84
2023/07/06 12:42:17;;;;;;;4.07;1.77;;;20.20;98.60;;;;;;5003962;28;20032;-81
2023/07/06 12:44:45;;;;;;;2.53;1.20;;;20.20;98.70;;;;;;5006569;28;20022;-80
2023/07/06 12:47:36;;;;;;;2.38;1.30;;;20.40;99.30;;;;;;5016748;28;20099;-82
2023/07/06 12:50:06;;;;;;;1.38;1.08;;;20.70;99.70;;;;;;5014967;28;20539;-80
2023/07/06 12:52:33;;;;;;;1.80;1.40;;;21.00;99.90;;;;;;5031188;28;20112;-81
2023/07/06 12:55:00;;;;;;;3.22;1.10;;;21.10;98.90;;;;;;5020695;28;20025;-80
2023/07/06 12:57:29;;;;;;;1.70;1.10;;;21.20;98.30;;;;;;5019488;28;20504;-81
2023/07/06 13:00:05;;;;;;;4.20;1.40;;;21.20;98.90;;;;;;4995655;28;20084;-80
2023/07/06 13:02:36;;;;;;;1.10;0.90;;;21.20;97.80;;;;;;5002739;28;20065;-78
2023/07/06 13:05:14;;;;;;;2.00;1.13;;;21.30;99.00;;;;;;4997513;28;20030;-80